createdAt,value
2017-11-18T00:01:43.161Z,93.70
2017-11-18T00:04:10.751Z,93.80
2017-11-18T00:06:38.254Z,93.90
2017-11-18T00:09:05.796Z,94.00
2017-11-18T00:11:33.307Z,94.00
2017-11-18T00:14:01.623Z,93.80
2017-11-18T00:16:29.129Z,93.90
2017-11-18T00:18:56.627Z,93.90
2017-11-18T00:21:24.940Z,94.00
2017-11-18T00:23:52.464Z,94.00
2017-11-18T00:26:20.006Z,94.00
2017-11-18T00:28:47.508Z,94.00
2017-11-18T00:31:15.093Z,94.00
2017-11-18T00:33:42.605Z,93.90
2017-11-18T00:36:10.197Z,93.90
2017-11-18T00:38:37.708Z,94.10
2017-11-18T00:41:05.219Z,94.00
2017-11-18T00:43:32.765Z,93.90
2017-11-18T00:46:00.270Z,94.00
2017-11-18T00:48:27.828Z,94.00
2017-11-18T00:50:55.373Z,94.00
2017-11-18T00:53:24.435Z,94.10
2017-11-18T00:55:51.951Z,94.10
2017-11-18T00:58:19.509Z,94.20
2017-11-18T01:00:47.029Z,94.40
2017-11-18T01:03:14.635Z,94.60
2017-11-18T01:05:42.148Z,94.70
2017-11-18T01:08:10.450Z,94.90
2017-11-18T01:10:38.750Z,95.10
2017-11-18T01:13:06.259Z,95.10
2017-11-18T01:15:33.790Z,95.10
2017-11-18T01:18:01.284Z,95.20
2017-11-18T01:20:28.822Z,95.30
2017-11-18T01:22:57.095Z,95.50
2017-11-18T01:25:24.633Z,95.50
2017-11-18T01:27:52.138Z,95.40
2017-11-18T01:30:19.691Z,95.40
2017-11-18T01:32:47.217Z,95.30
2017-11-18T01:35:14.774Z,95.20
2017-11-18T01:37:42.309Z,95.20
2017-11-18T01:40:09.814Z,95.60
2017-11-18T01:42:38.125Z,95.20
2017-11-18T01:45:05.636Z,95.20
2017-11-18T01:47:33.175Z,95.20
2017-11-18T01:50:00.683Z,95.20
2017-11-18T01:52:28.224Z,95.20
2017-11-18T01:54:55.730Z,95.10
2017-11-18T01:57:23.287Z,95.20
2017-11-18T01:59:50.793Z,95.40
2017-11-18T02:02:43.124Z,95.50
2017-11-18T02:05:10.627Z,95.70
2017-11-18T02:07:39.094Z,95.70
2017-11-18T02:10:06.664Z,95.70
2017-11-18T02:12:34.173Z,95.80
2017-11-18T02:15:02.486Z,96.10
2017-11-18T02:17:30.019Z,96.10
2017-11-18T02:19:57.566Z,96.30
2017-11-18T02:22:25.071Z,96.30
2017-11-18T02:24:53.370Z,96.30
2017-11-18T02:27:20.866Z,96.30
2017-11-18T02:29:48.402Z,96.30
2017-11-18T02:32:16.670Z,96.30
2017-11-18T02:34:44.214Z,96.30
2017-11-18T02:37:15.497Z,96.30
2017-11-18T02:39:42.990Z,96.20
2017-11-18T02:42:10.539Z,96.10
2017-11-18T02:44:38.310Z,96.00
2017-11-18T02:47:06.660Z,96.00
2017-11-18T02:49:34.166Z,96.00
2017-11-18T02:52:01.701Z,96.10
2017-11-18T02:54:29.236Z,96.10
2017-11-18T02:56:56.813Z,96.10
2017-11-18T02:59:24.323Z,96.20
2017-11-18T03:01:51.874Z,96.50
2017-11-18T03:04:19.383Z,96.30
2017-11-18T03:06:46.967Z,96.30
2017-11-18T03:09:14.453Z,96.30
2017-11-18T03:11:42.091Z,96.40
2017-11-18T03:14:09.589Z,96.30
2017-11-18T03:16:37.087Z,96.30
2017-11-18T03:19:04.628Z,96.40
2017-11-18T03:21:32.123Z,96.40
2017-11-18T03:23:59.667Z,96.30
2017-11-18T03:26:27.166Z,96.30
2017-11-18T03:28:54.665Z,96.30
2017-11-18T03:31:23.678Z,96.30
2017-11-18T03:33:51.951Z,96.30
2017-11-18T03:36:20.310Z,96.30
2017-11-18T03:38:47.825Z,96.30
2017-11-18T03:41:17.541Z,96.40
2017-11-18T03:43:45.814Z,96.40
2017-11-18T03:46:13.351Z,96.40
2017-11-18T03:48:40.920Z,96.30
2017-11-18T03:51:08.417Z,96.30
2017-11-18T03:53:35.964Z,96.30
2017-11-18T03:56:03.470Z,96.30
2017-11-18T03:58:32.870Z,96.20
2017-11-18T04:01:00.411Z,96.40
2017-11-18T04:03:27.900Z,96.20
2017-11-18T04:05:56.855Z,96.20
2017-11-18T04:08:25.115Z,96.20
2017-11-18T04:10:53.443Z,96.20
2017-11-18T04:13:21.759Z,96.30
2017-11-18T04:15:50.664Z,96.30
2017-11-18T04:18:18.163Z,96.30
2017-11-18T04:20:46.905Z,96.30
2017-11-18T04:23:15.221Z,96.10
2017-11-18T04:25:42.721Z,96.10
2017-11-18T04:28:10.372Z,96.10
2017-11-18T04:30:37.902Z,96.10
2017-11-18T04:33:05.404Z,96.10
2017-11-18T04:35:34.334Z,96.10
2017-11-18T04:38:01.826Z,96.10
2017-11-18T04:40:29.373Z,96.10
2017-11-18T04:42:56.867Z,95.90
2017-11-18T04:45:24.432Z,95.50
2017-11-18T04:47:51.948Z,95.20
2017-11-18T04:50:19.442Z,95.10
2017-11-18T04:52:46.978Z,95.10
2017-11-18T04:55:15.243Z,95.30
2017-11-18T04:57:44.643Z,95.30
2017-11-18T05:00:12.471Z,95.20
2017-11-18T05:02:40.726Z,95.20
2017-11-18T05:05:08.312Z,95.20
2017-11-18T05:07:35.805Z,95.30
2017-11-18T05:10:04.084Z,95.40
2017-11-18T05:12:32.378Z,95.30
2017-11-18T05:15:00.634Z,95.30
2017-11-18T05:17:28.157Z,95.20
2017-11-18T05:19:56.135Z,95.20
2017-11-18T05:22:23.675Z,95.20
2017-11-18T05:24:51.174Z,95.20
2017-11-18T05:27:19.496Z,95.10
2017-11-18T05:29:46.995Z,95.10
2017-11-18T05:32:14.526Z,95.00
2017-11-18T05:34:42.055Z,95.00
2017-11-18T05:37:09.550Z,95.00
2017-11-18T05:39:37.090Z,94.90
2017-11-18T05:42:04.612Z,95.00
2017-11-18T05:44:32.146Z,95.00
2017-11-18T05:47:00.419Z,94.80
2017-11-18T05:49:27.968Z,94.80
2017-11-18T05:51:55.468Z,94.70
2017-11-18T05:54:22.973Z,94.50
2017-11-18T05:56:51.266Z,94.60
2017-11-18T05:59:19.551Z,94.70
2017-11-18T06:01:47.095Z,94.70
2017-11-18T06:04:14.598Z,94.70
2017-11-18T06:06:43.281Z,95.00
2017-11-18T06:09:10.797Z,95.00
2017-11-18T06:11:38.305Z,95.10
2017-11-18T06:14:05.866Z,95.10
2017-11-18T06:16:33.372Z,95.00
2017-11-18T06:19:00.906Z,95.20
2017-11-18T06:21:28.408Z,95.40
2017-11-18T06:23:55.943Z,95.50
2017-11-18T06:26:23.446Z,95.50
2017-11-18T06:28:51.756Z,95.70
2017-11-18T06:31:20.019Z,95.70
2017-11-18T06:33:47.571Z,95.70
2017-11-18T06:36:15.078Z,95.70
2017-11-18T06:38:43.347Z,96.00
2017-11-18T06:41:10.878Z,96.00
2017-11-18T06:43:38.376Z,96.30
2017-11-18T06:46:05.925Z,96.50
2017-11-18T06:48:33.425Z,96.70
2017-11-18T06:51:00.962Z,96.80
2017-11-18T06:53:28.560Z,96.90
2017-11-18T06:55:56.115Z,96.90
2017-11-18T06:58:23.602Z,96.90
2017-11-18T07:00:51.140Z,96.90
2017-11-18T07:03:18.823Z,96.90
2017-11-18T07:05:46.353Z,96.80
2017-11-18T07:08:13.851Z,96.90
2017-11-18T07:10:41.418Z,97.20
2017-11-18T07:13:08.918Z,96.90
2017-11-18T07:15:36.414Z,96.90
2017-11-18T07:18:03.957Z,96.90
2017-11-18T07:20:31.455Z,96.90
2017-11-18T07:22:58.999Z,96.90
2017-11-18T07:25:26.494Z,96.90
2017-11-18T07:27:54.035Z,96.90
2017-11-18T07:30:21.549Z,96.80
2017-11-18T07:32:49.094Z,96.70
2017-11-18T07:35:16.599Z,96.70
2017-11-18T07:37:44.099Z,96.70
2017-11-18T07:40:12.499Z,96.60
2017-11-18T07:42:40.007Z,96.60
2017-11-18T07:45:07.540Z,96.60
2017-11-18T07:47:35.052Z,96.50
2017-11-18T07:50:02.588Z,96.50
2017-11-18T07:52:30.082Z,96.40
2017-11-18T07:54:57.729Z,96.30
2017-11-18T07:57:28.006Z,96.30
2017-11-18T07:59:55.505Z,96.30
2017-11-18T08:02:23.084Z,96.30
2017-11-18T08:04:50.932Z,96.20
2017-11-18T08:07:18.486Z,96.00
2017-11-18T08:09:45.987Z,96.00
2017-11-18T08:12:15.778Z,96.00
2017-11-18T08:14:43.590Z,96.00
2017-11-18T08:17:11.823Z,95.70
2017-11-18T08:19:42.204Z,95.50
2017-11-18T08:22:09.800Z,95.30
2017-11-18T08:24:38.224Z,94.20
2017-11-18T08:27:06.486Z,94.10
2017-11-18T08:29:34.082Z,94.10
2017-11-18T08:32:02.360Z,93.50
2017-11-18T08:34:29.886Z,93.50
2017-11-18T08:36:57.381Z,93.70
2017-11-18T08:39:24.910Z,92.30
2017-11-18T08:41:52.399Z,91.60
2017-11-18T08:44:19.950Z,92.00
2017-11-18T08:46:47.450Z,91.00
2017-11-18T08:49:14.950Z,91.10
2017-11-18T08:51:42.470Z,90.20
2017-11-18T08:54:09.958Z,88.50
2017-11-18T08:56:37.496Z,86.90
2017-11-18T08:59:05.773Z,86.30
2017-11-18T09:01:34.075Z,86.10
2017-11-18T09:04:02.354Z,86.40
2017-11-18T09:06:31.165Z,84.30
2017-11-18T09:08:58.677Z,84.30
2017-11-18T09:11:26.287Z,82.20
2017-11-18T09:13:53.813Z,82.60
2017-11-18T09:16:21.304Z,82.20
2017-11-18T09:18:48.847Z,82.10
2017-11-18T09:21:16.361Z,81.20
2017-11-18T09:23:43.901Z,80.80
2017-11-18T09:26:11.394Z,80.10
2017-11-18T09:28:38.894Z,79.20
2017-11-18T09:31:07.194Z,79.70
2017-11-18T09:33:35.470Z,77.20
2017-11-18T09:36:03.764Z,75.50
2017-11-18T09:38:32.070Z,75.40
2017-11-18T09:41:00.366Z,74.70
2017-11-18T09:43:27.851Z,74.70
2017-11-18T09:45:55.384Z,74.60
2017-11-18T09:48:23.643Z,73.30
2017-11-18T09:50:51.295Z,73.30
2017-11-18T09:53:18.804Z,72.70
2017-11-18T09:55:46.305Z,73.30
2017-11-18T09:58:14.611Z,74.10
2017-11-18T10:00:42.117Z,74.10
2017-11-18T10:03:10.413Z,72.70
2017-11-18T10:05:37.909Z,72.70
2017-11-18T10:08:05.438Z,72.40
2017-11-18T10:10:32.923Z,72.10
2017-11-18T10:13:00.458Z,70.70
2017-11-18T10:15:27.964Z,72.10
2017-11-18T10:17:55.532Z,72.10
2017-11-18T10:20:23.029Z,71.70
2017-11-18T10:22:50.566Z,71.30
2017-11-18T10:25:18.110Z,70.80
2017-11-18T10:27:45.601Z,71.60
2017-11-18T10:30:13.176Z,72.00
2017-11-18T10:32:40.692Z,71.70
2017-11-18T10:35:08.244Z,71.90
2017-11-18T10:37:35.781Z,71.70
2017-11-18T10:40:03.363Z,71.00
2017-11-18T10:42:30.865Z,69.80
2017-11-18T10:44:58.359Z,70.40
2017-11-18T10:47:25.904Z,69.20
2017-11-18T10:49:53.444Z,70.00
2017-11-18T10:52:20.971Z,69.00
2017-11-18T10:54:48.458Z,68.10
2017-11-18T10:57:16.767Z,67.30
2017-11-18T10:59:44.257Z,67.30
2017-11-18T11:02:11.754Z,65.80
2017-11-18T11:04:39.283Z,66.30
2017-11-18T11:07:06.783Z,66.60
2017-11-18T11:09:34.334Z,66.80
2017-11-18T11:12:01.864Z,67.90
2017-11-18T11:14:29.436Z,66.90
2017-11-18T11:16:57.705Z,67.60
2017-11-18T11:19:25.277Z,67.60
2017-11-18T11:21:52.783Z,67.20
2017-11-18T11:24:20.285Z,68.30
2017-11-18T11:26:47.846Z,67.50
2017-11-18T11:29:15.358Z,68.50
2017-11-18T11:31:42.894Z,67.60
2017-11-18T11:34:11.161Z,69.50
2017-11-18T11:36:39.450Z,68.20
2017-11-18T11:39:06.942Z,68.10
2017-11-18T11:41:34.466Z,67.60
2017-11-18T11:44:01.969Z,68.00
2017-11-18T11:46:29.514Z,68.40
2017-11-18T11:48:57.005Z,68.40
2017-11-18T11:51:24.519Z,68.10
2017-11-18T11:53:52.077Z,68.50
2017-11-18T11:56:19.582Z,68.20
2017-11-18T11:58:47.114Z,68.60
2017-11-18T12:01:14.619Z,68.60
2017-11-18T12:03:42.169Z,69.00
2017-11-18T12:06:10.548Z,68.60
2017-11-18T12:08:38.091Z,68.80
2017-11-18T12:11:06.413Z,68.10
2017-11-18T12:13:33.911Z,68.10
2017-11-18T12:16:01.436Z,68.50
2017-11-18T12:18:29.105Z,68.50
2017-11-18T12:20:57.441Z,68.00
2017-11-18T12:23:24.931Z,68.00
2017-11-18T12:25:52.454Z,67.70
2017-11-18T12:28:19.961Z,68.40
2017-11-18T12:30:47.467Z,67.90
2017-11-18T12:33:14.999Z,67.80
2017-11-18T12:35:42.487Z,67.70
2017-11-18T12:38:10.018Z,67.00
2017-11-18T12:40:38.292Z,65.80
2017-11-18T12:43:06.594Z,66.20
2017-11-18T12:45:34.090Z,66.20
2017-11-18T12:48:01.656Z,66.50
2017-11-18T12:50:29.164Z,65.20
2017-11-18T12:52:56.695Z,65.30
2017-11-18T12:55:24.280Z,64.20
2017-11-18T12:57:51.772Z,63.30
2017-11-18T13:00:19.287Z,63.20
2017-11-18T13:02:46.833Z,63.40
2017-11-18T13:05:14.364Z,62.60
2017-11-18T13:07:41.868Z,62.00
2017-11-18T13:10:09.393Z,62.30
2017-11-18T13:12:36.890Z,62.00
2017-11-18T13:15:04.441Z,61.80
2017-11-18T13:17:31.931Z,62.20
2017-11-18T13:19:59.454Z,62.00
2017-11-18T13:22:26.965Z,63.00
2017-11-18T13:24:54.498Z,63.00
2017-11-18T13:27:21.998Z,63.00
2017-11-18T13:29:49.534Z,63.10
2017-11-18T13:32:19.679Z,63.50
2017-11-18T13:34:47.205Z,63.50
2017-11-18T13:37:15.330Z,63.20
2017-11-18T13:39:42.872Z,62.40
2017-11-18T13:42:10.387Z,63.00
2017-11-18T13:44:37.987Z,62.40
2017-11-18T13:47:05.490Z,62.40
2017-11-18T13:49:33.022Z,62.60
2017-11-18T13:52:00.521Z,63.50
2017-11-18T13:54:28.043Z,63.40
2017-11-18T13:56:55.535Z,63.10
2017-11-18T13:59:23.074Z,63.40
2017-11-18T14:01:50.568Z,63.90
2017-11-18T14:04:18.101Z,63.90
2017-11-18T14:06:46.368Z,64.10
2017-11-18T14:09:13.847Z,64.00
2017-11-18T14:11:41.390Z,63.90
2017-11-18T14:14:08.938Z,64.30
2017-11-18T14:16:37.199Z,64.30
2017-11-18T14:19:04.752Z,65.10
2017-11-18T14:21:32.307Z,65.50
2017-11-18T14:23:59.813Z,66.20
2017-11-18T14:26:28.121Z,67.10
2017-11-18T14:28:55.618Z,67.00
2017-11-18T14:31:23.165Z,67.60
2017-11-18T14:33:50.657Z,67.00
2017-11-18T14:36:18.203Z,67.10
2017-11-18T14:38:45.694Z,67.20
2017-11-18T14:41:13.221Z,66.30
2017-11-18T14:43:40.742Z,66.50
2017-11-18T14:46:08.230Z,66.00
2017-11-18T14:48:35.763Z,66.40
2017-11-18T14:51:03.246Z,66.10
2017-11-18T14:53:30.809Z,66.60
2017-11-18T14:55:58.323Z,67.00
2017-11-18T14:58:25.849Z,67.70
2017-11-18T15:00:53.386Z,67.80
2017-11-18T15:03:20.875Z,67.80
2017-11-18T15:05:48.411Z,68.50
2017-11-18T15:08:15.894Z,68.80
2017-11-18T15:10:43.420Z,68.90
2017-11-18T15:13:10.906Z,69.60
2017-11-18T15:15:38.924Z,69.60
2017-11-18T15:18:12.015Z,69.90
2017-11-18T15:20:45.147Z,70.30
2017-11-18T15:26:26.219Z,70.60
2017-11-18T15:28:54.226Z,70.50
2017-11-18T15:34:49.854Z,70.50
2017-11-18T15:40:23.404Z,70.40
2017-11-18T15:42:50.949Z,70.20
2017-11-18T15:45:21.627Z,70.50
2017-11-18T15:48:09.534Z,70.40
2017-11-18T15:50:39.579Z,70.30
2017-11-18T15:53:13.491Z,70.60
2017-11-18T15:55:58.705Z,70.60
2017-11-18T15:58:27.027Z,70.80
2017-11-18T16:01:00.217Z,71.00
2017-11-18T16:03:27.759Z,71.20
2017-11-18T16:05:56.153Z,71.20
2017-11-18T16:08:24.419Z,71.70
2017-11-18T16:10:52.017Z,71.70
2017-11-18T16:13:19.589Z,71.90
2017-11-18T16:15:47.370Z,72.10
2017-11-18T16:18:14.974Z,72.50
2017-11-18T16:20:42.549Z,73.10
2017-11-18T16:23:10.084Z,73.50
2017-11-18T16:25:38.353Z,73.80
2017-11-18T16:28:05.883Z,73.80
2017-11-18T16:30:33.374Z,74.00
2017-11-18T16:33:00.936Z,74.00
2017-11-18T16:35:28.955Z,74.30
2017-11-18T16:37:56.505Z,74.60
2017-11-18T16:40:24.017Z,75.00
2017-11-18T16:42:52.339Z,75.10
2017-11-18T16:45:19.834Z,75.00
2017-11-18T16:47:47.411Z,75.00
2017-11-18T16:50:14.955Z,74.70
2017-11-18T16:52:42.517Z,74.00
2017-11-18T16:55:10.118Z,74.40
2017-11-18T16:57:37.709Z,74.30
2017-11-18T17:00:05.247Z,74.30
2017-11-18T17:02:32.747Z,74.00
2017-11-18T17:05:00.286Z,74.30
2017-11-18T17:07:27.778Z,74.50
2017-11-18T17:09:55.322Z,74.70
2017-11-18T17:12:23.745Z,75.00
2017-11-18T17:14:51.276Z,75.50
2017-11-18T17:17:18.782Z,75.70
2017-11-18T17:19:46.320Z,76.30
2017-11-18T17:22:13.815Z,76.30
2017-11-18T17:24:41.357Z,76.30
2017-11-18T17:27:08.868Z,76.50
2017-11-18T17:29:36.366Z,76.50
2017-11-18T17:32:03.889Z,76.60
2017-11-18T17:34:31.383Z,76.80
2017-11-18T17:36:58.916Z,77.10
2017-11-18T17:39:26.430Z,77.40
2017-11-18T17:41:53.963Z,77.10
2017-11-18T17:44:21.445Z,77.50
2017-11-18T17:46:48.984Z,77.80
2017-11-18T17:49:17.245Z,78.20
2017-11-18T17:51:44.783Z,78.10
2017-11-18T17:54:12.272Z,78.00
2017-11-18T17:56:39.822Z,78.30
2017-11-18T17:59:07.327Z,78.30
2017-11-18T18:01:34.843Z,78.50
2017-11-18T18:04:03.138Z,79.10
2017-11-18T18:06:30.650Z,79.10
2017-11-18T18:08:58.189Z,81.50
2017-11-18T18:11:25.686Z,82.50
2017-11-18T18:13:54.084Z,83.70
2017-11-18T18:16:21.678Z,84.20
2017-11-18T18:18:49.241Z,84.50
2017-11-18T18:21:16.772Z,84.60
2017-11-18T18:23:45.034Z,84.90
2017-11-18T18:26:13.335Z,85.60
2017-11-18T18:28:40.854Z,84.90
2017-11-18T18:31:08.407Z,85.00
2017-11-18T18:33:35.907Z,84.70
2017-11-18T18:36:03.520Z,84.70
2017-11-18T18:38:31.814Z,85.10
2017-11-18T18:41:00.133Z,85.20
2017-11-18T18:43:27.698Z,85.10
2017-11-18T18:45:55.216Z,84.70
2017-11-18T18:48:22.806Z,83.70
2017-11-18T18:50:51.066Z,83.00
2017-11-18T18:53:18.604Z,82.90
2017-11-18T18:55:46.116Z,81.40
2017-11-18T18:58:13.671Z,81.40
2017-11-18T19:00:41.201Z,81.70
2017-11-18T19:03:08.749Z,81.60
2017-11-18T19:05:37.034Z,81.80
2017-11-18T19:08:04.534Z,81.00
2017-11-18T19:10:32.083Z,81.10
2017-11-18T19:12:59.584Z,81.50
2017-11-18T19:15:27.150Z,81.20
2017-11-18T19:17:54.662Z,81.00
2017-11-18T19:20:22.229Z,81.20
2017-11-18T19:22:49.732Z,81.20
2017-11-18T19:25:17.271Z,81.40
2017-11-18T19:27:44.770Z,81.10
2017-11-18T19:30:12.327Z,81.40
2017-11-18T19:32:39.839Z,81.00
2017-11-18T19:35:08.172Z,80.80
2017-11-18T19:37:35.695Z,80.70
2017-11-18T19:40:04.331Z,80.90
2017-11-18T19:42:32.833Z,80.90
2017-11-18T19:45:00.366Z,80.80
2017-11-18T19:47:28.685Z,81.40
2017-11-18T19:49:56.194Z,81.40
2017-11-18T19:52:23.808Z,81.20
2017-11-18T19:54:52.057Z,81.40
2017-11-18T19:57:19.612Z,81.40
2017-11-18T19:59:47.119Z,81.40
2017-11-18T20:02:14.727Z,81.60
2017-11-18T20:04:42.264Z,81.50
2017-11-18T20:07:09.800Z,81.70
2017-11-18T20:09:38.586Z,81.40
2017-11-18T20:12:06.252Z,81.50
2017-11-18T20:14:33.799Z,81.60
2017-11-18T20:17:01.401Z,81.30
2017-11-18T20:19:28.904Z,82.30
2017-11-18T20:21:57.404Z,81.60
2017-11-18T20:24:24.974Z,81.50
2017-11-18T20:26:52.485Z,81.70
2017-11-18T20:29:20.021Z,81.70
2017-11-18T20:31:47.519Z,81.60
2017-11-18T20:34:16.775Z,81.20
2017-11-18T20:36:44.679Z,81.20
2017-11-18T20:39:12.226Z,81.20
2017-11-18T20:41:39.830Z,81.30
2017-11-18T20:44:08.082Z,81.20
2017-11-18T20:46:35.629Z,81.60
2017-11-18T20:49:03.891Z,81.90
2017-11-18T20:51:31.455Z,81.90
2017-11-18T20:53:59.009Z,82.00
2017-11-18T20:56:26.583Z,82.90
2017-11-18T20:58:54.100Z,83.90
2017-11-18T21:01:21.692Z,84.80
2017-11-18T21:03:50.015Z,85.70
2017-11-18T21:06:17.622Z,86.10
2017-11-18T21:08:55.860Z,87.30
2017-11-18T21:11:23.370Z,87.30
2017-11-18T21:13:50.930Z,86.70
2017-11-18T21:16:19.231Z,87.50
2017-11-18T21:18:46.779Z,90.00
2017-11-18T21:21:15.039Z,91.10
2017-11-18T21:23:42.585Z,91.10
2017-11-18T21:26:10.078Z,91.30
2017-11-18T21:28:37.622Z,92.00
2017-11-18T21:31:05.109Z,92.50
2017-11-18T21:33:32.662Z,92.50
2017-11-18T21:36:00.217Z,92.70
2017-11-18T21:38:27.714Z,92.80
2017-11-18T21:40:55.262Z,92.80
2017-11-18T21:43:22.784Z,92.80
2017-11-18T21:45:50.309Z,92.80
2017-11-18T21:48:17.798Z,92.80
2017-11-18T21:50:45.323Z,92.90
2017-11-18T21:53:13.598Z,93.30
2017-11-18T21:55:41.102Z,93.30
2017-11-18T21:58:08.644Z,93.30
2017-11-18T22:00:36.135Z,93.40
2017-11-18T22:03:04.434Z,93.10
2017-11-18T22:05:31.944Z,93.10
2017-11-18T22:07:59.479Z,93.30
2017-11-18T22:10:26.971Z,93.20
2017-11-18T22:12:54.498Z,93.10
2017-11-18T22:15:22.773Z,92.60
2017-11-18T22:17:50.319Z,92.60
2017-11-18T22:20:17.815Z,92.70
2017-11-18T22:22:45.315Z,92.80
2017-11-18T22:25:13.605Z,92.90
2017-11-18T22:27:41.098Z,92.90
2017-11-18T22:30:08.626Z,93.00
2017-11-18T22:32:36.129Z,93.10
2017-11-18T22:35:03.665Z,93.20
2017-11-18T22:37:31.198Z,93.20
2017-11-18T22:39:58.740Z,93.40
2017-11-18T22:42:26.266Z,93.60
2017-11-18T22:44:53.812Z,93.60
2017-11-18T22:47:21.318Z,93.60
2017-11-18T22:49:48.814Z,93.70
2017-11-18T22:52:17.111Z,93.90
2017-11-18T22:54:44.611Z,93.90
2017-11-18T22:57:12.131Z,94.00
2017-11-18T22:59:40.392Z,94.40
2017-11-18T23:02:07.935Z,94.10
2017-11-18T23:04:35.430Z,94.20
2017-11-18T23:07:02.994Z,94.10
2017-11-18T23:09:30.486Z,94.20
2017-11-18T23:11:58.018Z,94.20
2017-11-18T23:14:25.528Z,94.20
2017-11-18T23:16:53.083Z,94.20
2017-11-18T23:19:20.583Z,94.30
2017-11-18T23:21:48.138Z,94.30
2017-11-18T23:24:15.664Z,94.30
2017-11-18T23:26:43.219Z,94.30
2017-11-18T23:29:11.547Z,94.40
2017-11-18T23:31:39.042Z,94.40
2017-11-18T23:34:06.574Z,94.50
2017-11-18T23:36:34.063Z,94.50
2017-11-18T23:39:01.593Z,94.60
2017-11-18T23:41:29.853Z,94.70
2017-11-18T23:43:57.439Z,94.70
2017-11-18T23:46:24.929Z,94.70
2017-11-18T23:48:53.185Z,94.60
2017-11-18T23:51:20.735Z,94.60
2017-11-18T23:53:48.261Z,94.70
2017-11-18T23:56:15.818Z,94.60
2017-11-18T23:58:43.323Z,94.50
